Aeroporto :
LOGIN :

Iscrizione | Disclaimer

   EN    FR    IT 

 










Sommario :    VFR   VFR Marginale   IFR   IFR Intensivo   IFR Molto Intensivo
Visibilità : 
Base nubi : 
>= 8 km
>= 3000ft
5 / 8 km
1000 / 3000 ft
1500m / 5 km
500 / 1000 ft
800 / 1500m
200 / 500 ft
< 800m
< 200 ft
Simboli :   Temporali  Nebbia  Neve Forte  Precipitazioni Forti  Vento > 20 kt
SIGMETs :   Varie  Temporali  Ghiacco  Turbolenza  Onda orograficha  Ceneri Vulcaniche






- Altitudine del aeroporto : 171 ft
- Codice IATA : EGC


LFBE - Bergerac

ULTIMO METAR :
  • 180400Z AUTO 06003KT 3600 BR NSC 00/M00 Q1033

METARs OBSOLETI :
  • 180330Z AUTO 07003KT 5000 BR NSC 01/M00 Q1033
  • 180300Z AUTO 00000KT CAVOK 01/01 Q1033
  • 180230Z AUTO 09002KT 8000 FEW028 02/01 Q1033
  • 180200Z AUTO 10002KT 9000 NSC 02/01 Q1033
  • 180130Z AUTO 06003KT 3700 BR NSC 02/01 Q1033

TAF TAF LFBE
Valido dal 17 a 18 ore il 18 a 18 ore UTC


171700Z 1718/1818 27012KT 9999 FEW030
TEMPO 1718/1720 5000 -SHRA SCT025TCU
BECMG 1720/1722 20005KT
BECMG 1810/1812 26010KT
PROB40
TEMPO 1808/1818 4000 SHRA BKN025TCU



MetMap, La meteo Aeronautica in un colpo d'occhio ! - Copyright ORBIFLY Dicembre 2007 - Disclaimer

ORBIFLY MET'MAP TEAM :

Programmazione e sviluppo : Alexandra Zaïnal
Concezione : Baudouin d'Aumeries
Aiuto per la programmazione : Marc-Olivier Méhu
Supporto tecnico e logistico : Manuel Goepfert
Aiuto per la traduzione : Arnaldo La Scala

Contatto : metmap@orbifly.com




FONTI E CREDITI :

   NOAA